sensor_id;sensor_type;location;lat;lon;timestamp;temperature;humidity
15452;DHT22;7827;53.594;9.938;2022-09-09T00:00:25;15.20;99.90
15452;DHT22;7827;53.594;9.938;2022-09-09T00:02:59;15.20;99.90
15452;DHT22;7827;53.594;9.938;2022-09-09T00:05:41;15.30;99.90
15452;DHT22;7827;53.594;9.938;2022-09-09T00:08:19;15.30;99.90
15452;DHT22;7827;53.594;9.938;2022-09-09T00:10:54;15.30;99.90
15452;DHT22;7827;53.594;9.938;2022-09-09T00:13:32;15.30;99.90
15452;DHT22;7827;53.594;9.938;2022-09-09T00:16:10;15.40;99.90
15452;DHT22;7827;53.594;9.938;2022-09-09T00:18:51;15.40;99.90
15452;DHT22;7827;53.594;9.938;2022-09-09T00:21:33;15.40;99.90
15452;DHT22;7827;53.594;9.938;2022-09-09T00:24:14;15.40;99.90
15452;DHT22;7827;53.594;9.938;2022-09-09T00:26:57;15.40;99.90
15452;DHT22;7827;53.594;9.938;2022-09-09T00:29:34;15.40;99.90
15452;DHT22;7827;53.594;9.938;2022-09-09T00:32:12;15.40;99.90
15452;DHT22;7827;53.594;9.938;2022-09-09T00:34:48;15.40;99.90
15452;DHT22;7827;53.594;9.938;2022-09-09T00:37:19;15.40;99.90
15452;DHT22;7827;53.594;9.938;2022-09-09T00:39:53;15.40;99.90
15452;DHT22;7827;53.594;9.938;2022-09-09T00:42:32;15.40;99.90
15452;DHT22;7827;53.594;9.938;2022-09-09T00:45:22;15.40;99.90
15452;DHT22;7827;53.594;9.938;2022-09-09T00:48:05;15.40;99.90
15452;DHT22;7827;53.594;9.938;2022-09-09T00:50:48;15.30;99.90
15452;DHT22;7827;53.594;9.938;2022-09-09T00:53:31;15.30;99.90
15452;DHT22;7827;53.594;9.938;2022-09-09T00:56:12;15.30;99.90
15452;DHT22;7827;53.594;9.938;2022-09-09T00:58:48;15.20;99.90
15452;DHT22;7827;53.594;9.938;2022-09-09T01:01:24;15.30;99.90
15452;DHT22;7827;53.594;9.938;2022-09-09T01:03:54;15.30;99.90
15452;DHT22;7827;53.594;9.938;2022-09-09T01:06:31;15.30;99.90
15452;DHT22;7827;53.594;9.938;2022-09-09T01:09:12;15.30;99.90
15452;DHT22;7827;53.594;9.938;2022-09-09T01:11:55;15.30;99.90
15452;DHT22;7827;53.594;9.938;2022-09-09T01:14:38;15.30;99.90
15452;DHT22;7827;53.594;9.938;2022-09-09T01:17:15;15.30;99.90
15452;DHT22;7827;53.594;9.938;2022-09-09T01:20:03;15.20;99.90
15452;DHT22;7827;53.594;9.938;2022-09-09T01:22:52;15.20;99.90
15452;DHT22;7827;53.594;9.938;2022-09-09T01:26:02;15.20;99.90
15452;DHT22;7827;53.594;9.938;2022-09-09T01:28:38;15.20;99.90
15452;DHT22;7827;53.594;9.938;2022-09-09T01:31:14;15.20;99.90
15452;DHT22;7827;53.594;9.938;2022-09-09T01:33:47;15.20;99.90
15452;DHT22;7827;53.594;9.938;2022-09-09T01:36:21;15.20;99.90
15452;DHT22;7827;53.594;9.938;2022-09-09T01:38:56;15.20;99.90
15452;DHT22;7827;53.594;9.938;2022-09-09T01:41:27;15.20;99.90
15452;DHT22;7827;53.594;9.938;2022-09-09T01:44:03;15.20;99.90
15452;DHT22;7827;53.594;9.938;2022-09-09T01:46:34;15.10;99.90
15452;DHT22;7827;53.594;9.938;2022-09-09T01:49:06;15.20;99.90
15452;DHT22;7827;53.594;9.938;2022-09-09T01:51:37;15.20;99.90
15452;DHT22;7827;53.594;9.938;2022-09-09T01:54:10;15.20;99.90
15452;DHT22;7827;53.594;9.938;2022-09-09T01:56:47;15.20;99.90
15452;DHT22;7827;53.594;9.938;2022-09-09T01:59:46;15.20;99.90
15452;DHT22;7827;53.594;9.938;2022-09-09T02:02:26;15.20;99.90
15452;DHT22;7827;53.594;9.938;2022-09-09T02:05:17;15.10;99.90
15452;DHT22;7827;53.594;9.938;2022-09-09T02:08:03;15.10;99.90
15452;DHT22;7827;53.594;9.938;2022-09-09T02:10:51;15.10;99.90
15452;DHT22;7827;53.594;9.938;2022-09-09T02:13:37;15.00;99.90
15452;DHT22;7827;53.594;9.938;2022-09-09T02:16:13;15.00;99.90
15452;DHT22;7827;53.594;9.938;2022-09-09T02:18:50;14.90;99.90
15452;DHT22;7827;53.594;9.938;2022-09-09T02:21:32;15.00;99.90
15452;DHT22;7827;53.594;9.938;2022-09-09T02:24:04;14.90;99.90
15452;DHT22;7827;53.594;9.938;2022-09-09T02:26:43;14.90;99.90
15452;DHT22;7827;53.594;9.938;2022-09-09T02:29:21;14.90;99.90
15452;DHT22;7827;53.594;9.938;2022-09-09T02:31:54;14.80;99.90
15452;DHT22;7827;53.594;9.938;2022-09-09T02:34:31;14.80;99.90
15452;DHT22;7827;53.594;9.938;2022-09-09T02:37:04;14.80;99.90
15452;DHT22;7827;53.594;9.938;2022-09-09T02:39:36;14.70;99.90
15452;DHT22;7827;53.594;9.938;2022-09-09T02:42:07;14.70;99.90
15452;DHT22;7827;53.594;9.938;2022-09-09T02:44:37;14.80;99.90
15452;DHT22;7827;53.594;9.938;2022-09-09T02:47:18;14.80;99.90
15452;DHT22;7827;53.594;9.938;2022-09-09T02:50:00;14.80;99.90
15452;DHT22;7827;53.594;9.938;2022-09-09T02:52:42;14.80;99.90
15452;DHT22;7827;53.594;9.938;2022-09-09T02:55:25;14.70;99.90
15452;DHT22;7827;53.594;9.938;2022-09-09T02:58:07;14.60;99.90
15452;DHT22;7827;53.594;9.938;2022-09-09T03:00:40;14.60;99.90
15452;DHT22;7827;53.594;9.938;2022-09-09T03:03:09;14.60;99.90
15452;DHT22;7827;53.594;9.938;2022-09-09T03:05:38;14.60;99.90
15452;DHT22;7827;53.594;9.938;2022-09-09T03:08:09;14.60;99.90
15452;DHT22;7827;53.594;9.938;2022-09-09T03:10:38;14.60;99.90
15452;DHT22;7827;53.594;9.938;2022-09-09T03:13:07;14.50;99.90
15452;DHT22;7827;53.594;9.938;2022-09-09T03:15:39;14.50;99.90
15452;DHT22;7827;53.594;9.938;2022-09-09T03:18:12;14.50;99.90
15452;DHT22;7827;53.594;9.938;2022-09-09T03:20:41;14.40;99.90
15452;DHT22;7827;53.594;9.938;2022-09-09T03:23:10;14.40;99.90
15452;DHT22;7827;53.594;9.938;2022-09-09T03:25:46;14.40;99.90
15452;DHT22;7827;53.594;9.938;2022-09-09T03:28:19;14.40;99.90
15452;DHT22;7827;53.594;9.938;2022-09-09T03:30:50;14.40;99.90
15452;DHT22;7827;53.594;9.938;2022-09-09T03:33:19;14.30;99.90
15452;DHT22;7827;53.594;9.938;2022-09-09T03:35:47;14.30;99.90
15452;DHT22;7827;53.594;9.938;2022-09-09T03:38:18;14.40;99.90
15452;DHT22;7827;53.594;9.938;2022-09-09T03:40:51;14.40;99.90
15452;DHT22;7827;53.594;9.938;2022-09-09T03:43:23;14.30;99.90
15452;DHT22;7827;53.594;9.938;2022-09-09T03:45:54;14.30;99.90
15452;DHT22;7827;53.594;9.938;2022-09-09T03:48:25;14.20;99.90
15452;DHT22;7827;53.594;9.938;2022-09-09T03:50:56;14.20;99.90
15452;DHT22;7827;53.594;9.938;2022-09-09T03:53:29;14.20;99.90
15452;DHT22;7827;53.594;9.938;2022-09-09T03:55:58;14.20;99.90
15452;DHT22;7827;53.594;9.938;2022-09-09T03:58:29;14.20;99.90
15452;DHT22;7827;53.594;9.938;2022-09-09T04:01:06;14.20;99.90
15452;DHT22;7827;53.594;9.938;2022-09-09T04:03:37;14.10;99.90
15452;DHT22;7827;53.594;9.938;2022-09-09T04:06:08;14.10;99.90
15452;DHT22;7827;53.594;9.938;2022-09-09T04:08:38;14.10;99.90
15452;DHT22;7827;53.594;9.938;2022-09-09T04:11:07;14.10;99.90
15452;DHT22;7827;53.594;9.938;2022-09-09T04:13:38;14.10;99.90
15452;DHT22;7827;53.594;9.938;2022-09-09T04:16:11;14.10;99.90
15452;DHT22;7827;53.594;9.938;2022-09-09T04:18:42;14.10;99.90
15452;DHT22;7827;53.594;9.938;2022-09-09T04:21:13;14.10;99.90
15452;DHT22;7827;53.594;9.938;2022-09-09T04:23:42;14.10;99.90
15452;DHT22;7827;53.594;9.938;2022-09-09T04:26:10;14.00;99.90
15452;DHT22;7827;53.594;9.938;2022-09-09T04:28:39;14.10;99.90
15452;DHT22;7827;53.594;9.938;2022-09-09T04:31:17;14.00;99.90
15452;DHT22;7827;53.594;9.938;2022-09-09T04:33:48;14.00;99.90
15452;DHT22;7827;53.594;9.938;2022-09-09T04:36:17;14.00;99.90
15452;DHT22;7827;53.594;9.938;2022-09-09T04:38:51;14.00;99.90
15452;DHT22;7827;53.594;9.938;2022-09-09T04:41:19;14.00;99.90
15452;DHT22;7827;53.594;9.938;2022-09-09T04:43:51;14.00;99.90
15452;DHT22;7827;53.594;9.938;2022-09-09T04:46:22;14.00;99.90
15452;DHT22;7827;53.594;9.938;2022-09-09T04:48:51;14.00;99.90
15452;DHT22;7827;53.594;9.938;2022-09-09T04:51:22;14.00;99.90
15452;DHT22;7827;53.594;9.938;2022-09-09T04:53:51;14.10;99.90
15452;DHT22;7827;53.594;9.938;2022-09-09T04:56:20;14.10;99.90
15452;DHT22;7827;53.594;9.938;2022-09-09T04:58:55;14.10;99.90
15452;DHT22;7827;53.594;9.938;2022-09-09T05:01:33;14.10;99.90
15452;DHT22;7827;53.594;9.938;2022-09-09T05:04:03;14.10;99.90
15452;DHT22;7827;53.594;9.938;2022-09-09T05:06:33;14.10;99.90
15452;DHT22;7827;53.594;9.938;2022-09-09T05:09:03;14.20;99.90
15452;DHT22;7827;53.594;9.938;2022-09-09T05:11:33;14.20;99.90
15452;DHT22;7827;53.594;9.938;2022-09-09T05:14:22;14.20;99.90
15452;DHT22;7827;53.594;9.938;2022-09-09T05:16:52;14.20;99.90
15452;DHT22;7827;53.594;9.938;2022-09-09T05:19:22;14.30;99.90
15452;DHT22;7827;53.594;9.938;2022-09-09T05:21:51;14.30;99.90
15452;DHT22;7827;53.594;9.938;2022-09-09T05:24:25;14.30;99.90
15452;DHT22;7827;53.594;9.938;2022-09-09T05:26:56;14.30;99.90
15452;DHT22;7827;53.594;9.938;2022-09-09T05:29:26;14.30;99.90
15452;DHT22;7827;53.594;9.938;2022-09-09T05:31:57;14.30;99.90
15452;DHT22;7827;53.594;9.938;2022-09-09T05:34:25;14.30;99.90
15452;DHT22;7827;53.594;9.938;2022-09-09T05:36:53;14.40;99.90
15452;DHT22;7827;53.594;9.938;2022-09-09T05:39:23;14.40;99.90
15452;DHT22;7827;53.594;9.938;2022-09-09T05:41:51;14.40;99.90
15452;DHT22;7827;53.594;9.938;2022-09-09T05:44:19;14.50;99.90
15452;DHT22;7827;53.594;9.938;2022-09-09T05:46:50;14.50;99.90
15452;DHT22;7827;53.594;9.938;2022-09-09T05:49:19;14.60;99.90
15452;DHT22;7827;53.594;9.938;2022-09-09T05:51:48;14.50;99.90
15452;DHT22;7827;53.594;9.938;2022-09-09T05:54:18;14.50;99.90
15452;DHT22;7827;53.594;9.938;2022-09-09T05:56:50;14.60;99.90
15452;DHT22;7827;53.594;9.938;2022-09-09T05:59:20;14.60;99.90
15452;DHT22;7827;53.594;9.938;2022-09-09T06:01:51;14.60;99.90
15452;DHT22;7827;53.594;9.938;2022-09-09T06:04:30;14.70;99.90
15452;DHT22;7827;53.594;9.938;2022-09-09T06:07:00;14.70;99.90
15452;DHT22;7827;53.594;9.938;2022-09-09T06:09:29;14.80;99.90
15452;DHT22;7827;53.594;9.938;2022-09-09T06:11:57;14.90;99.90
15452;DHT22;7827;53.594;9.938;2022-09-09T06:14:26;15.00;99.90
15452;DHT22;7827;53.594;9.938;2022-09-09T06:16:57;15.10;99.90
15452;DHT22;7827;53.594;9.938;2022-09-09T06:19:29;15.10;99.90
15452;DHT22;7827;53.594;9.938;2022-09-09T06:21:59;15.10;99.90
15452;DHT22;7827;53.594;9.938;2022-09-09T06:24:30;15.10;99.90
15452;DHT22;7827;53.594;9.938;2022-09-09T06:27:00;15.10;99.90
15452;DHT22;7827;53.594;9.938;2022-09-09T06:29:32;15.10;99.90
15452;DHT22;7827;53.594;9.938;2022-09-09T06:32:02;15.10;99.90
15452;DHT22;7827;53.594;9.938;2022-09-09T06:34:32;15.20;99.90
15452;DHT22;7827;53.594;9.938;2022-09-09T06:37:00;15.20;99.90
15452;DHT22;7827;53.594;9.938;2022-09-09T06:39:42;15.20;99.90
15452;DHT22;7827;53.594;9.938;2022-09-09T06:42:10;15.20;99.90
15452;DHT22;7827;53.594;9.938;2022-09-09T06:44:58;15.20;99.90
15452;DHT22;7827;53.594;9.938;2022-09-09T06:47:34;15.20;99.90
15452;DHT22;7827;53.594;9.938;2022-09-09T06:50:05;15.30;99.90
15452;DHT22;7827;53.594;9.938;2022-09-09T06:52:35;15.30;99.90
15452;DHT22;7827;53.594;9.938;2022-09-09T06:55:05;15.40;99.90
15452;DHT22;7827;53.594;9.938;2022-09-09T06:57:34;15.50;99.90
15452;DHT22;7827;53.594;9.938;2022-09-09T07:00:17;15.50;99.90
15452;DHT22;7827;53.594;9.938;2022-09-09T07:02:45;15.60;99.90
15452;DHT22;7827;53.594;9.938;2022-09-09T07:05:15;15.70;99.90
15452;DHT22;7827;53.594;9.938;2022-09-09T07:07:45;15.70;99.90
15452;DHT22;7827;53.594;9.938;2022-09-09T07:10:16;15.80;99.90
15452;DHT22;7827;53.594;9.938;2022-09-09T07:12:45;15.90;99.90
15452;DHT22;7827;53.594;9.938;2022-09-09T07:15:18;16.00;99.90
15452;DHT22;7827;53.594;9.938;2022-09-09T07:17:49;16.20;99.90
15452;DHT22;7827;53.594;9.938;2022-09-09T07:20:21;16.40;99.90
15452;DHT22;7827;53.594;9.938;2022-09-09T07:22:54;16.60;99.90
15452;DHT22;7827;53.594;9.938;2022-09-09T07:25:23;16.70;99.90
15452;DHT22;7827;53.594;9.938;2022-09-09T07:27:56;16.60;99.90
15452;DHT22;7827;53.594;9.938;2022-09-09T07:30:25;16.60;99.90
15452;DHT22;7827;53.594;9.938;2022-09-09T07:32:54;16.50;99.90
15452;DHT22;7827;53.594;9.938;2022-09-09T07:35:24;16.50;99.90
15452;DHT22;7827;53.594;9.938;2022-09-09T07:37:53;16.40;99.90
15452;DHT22;7827;53.594;9.938;2022-09-09T07:40:22;16.50;99.90
15452;DHT22;7827;53.594;9.938;2022-09-09T07:42:51;16.60;99.90
15452;DHT22;7827;53.594;9.938;2022-09-09T07:45:20;16.80;99.90
15452;DHT22;7827;53.594;9.938;2022-09-09T07:47:49;16.90;99.90
15452;DHT22;7827;53.594;9.938;2022-09-09T07:50:19;17.00;99.90
15452;DHT22;7827;53.594;9.938;2022-09-09T07:52:49;16.90;99.90
15452;DHT22;7827;53.594;9.938;2022-09-09T07:55:17;16.90;99.90
15452;DHT22;7827;53.594;9.938;2022-09-09T07:57:46;16.80;99.90
15452;DHT22;7827;53.594;9.938;2022-09-09T08:00:15;16.80;99.90
15452;DHT22;7827;53.594;9.938;2022-09-09T08:02:49;16.80;99.90
15452;DHT22;7827;53.594;9.938;2022-09-09T08:05:18;16.70;99.90
15452;DHT22;7827;53.594;9.938;2022-09-09T08:07:49;16.70;99.90
15452;DHT22;7827;53.594;9.938;2022-09-09T08:10:17;16.70;99.90
15452;DHT22;7827;53.594;9.938;2022-09-09T08:12:47;16.70;99.90
15452;DHT22;7827;53.594;9.938;2022-09-09T08:15:36;16.90;99.90
15452;DHT22;7827;53.594;9.938;2022-09-09T08:18:04;17.00;99.90
15452;DHT22;7827;53.594;9.938;2022-09-09T08:20:35;17.10;99.90
15452;DHT22;7827;53.594;9.938;2022-09-09T08:23:05;17.10;99.90
15452;DHT22;7827;53.594;9.938;2022-09-09T08:25:34;17.10;99.90
15452;DHT22;7827;53.594;9.938;2022-09-09T08:28:02;17.20;99.90
15452;DHT22;7827;53.594;9.938;2022-09-09T08:30:31;17.30;99.90
15452;DHT22;7827;53.594;9.938;2022-09-09T08:32:59;17.40;99.90
15452;DHT22;7827;53.594;9.938;2022-09-09T08:35:27;17.40;99.90
15452;DHT22;7827;53.594;9.938;2022-09-09T08:38:00;17.30;99.90
15452;DHT22;7827;53.594;9.938;2022-09-09T08:40:37;17.30;99.90
15452;DHT22;7827;53.594;9.938;2022-09-09T08:43:10;17.40;99.90
15452;DHT22;7827;53.594;9.938;2022-09-09T08:45:50;17.30;99.90
15452;DHT22;7827;53.594;9.938;2022-09-09T08:48:42;17.40;99.90
15452;DHT22;7827;53.594;9.938;2022-09-09T08:51:19;17.40;99.90
15452;DHT22;7827;53.594;9.938;2022-09-09T08:53:49;17.40;99.90
15452;DHT22;7827;53.594;9.938;2022-09-09T08:56:27;17.50;99.90
15452;DHT22;7827;53.594;9.938;2022-09-09T08:59:01;17.50;99.90
15452;DHT22;7827;53.594;9.938;2022-09-09T09:01:43;17.60;99.90
15452;DHT22;7827;53.594;9.938;2022-09-09T09:04:38;17.60;99.90
15452;DHT22;7827;53.594;9.938;2022-09-09T09:07:25;17.80;99.90
15452;DHT22;7827;53.594;9.938;2022-09-09T09:10:10;17.80;99.90
15452;DHT22;7827;53.594;9.938;2022-09-09T09:13:13;17.90;99.90
15452;DHT22;7827;53.594;9.938;2022-09-09T09:15:49;18.10;99.90
15452;DHT22;7827;53.594;9.938;2022-09-09T09:18:21;18.30;99.90
15452;DHT22;7827;53.594;9.938;2022-09-09T09:20:55;18.60;99.90
15452;DHT22;7827;53.594;9.938;2022-09-09T09:23:35;18.80;99.90
15452;DHT22;7827;53.594;9.938;2022-09-09T09:26:09;18.80;99.90
15452;DHT22;7827;53.594;9.938;2022-09-09T09:28:40;18.90;99.90
15452;DHT22;7827;53.594;9.938;2022-09-09T09:31:13;19.00;99.90
15452;DHT22;7827;53.594;9.938;2022-09-09T09:33:48;19.00;99.90
15452;DHT22;7827;53.594;9.938;2022-09-09T09:36:24;19.00;99.90
15452;DHT22;7827;53.594;9.938;2022-09-09T09:39:03;19.00;99.90
15452;DHT22;7827;53.594;9.938;2022-09-09T09:41:53;19.00;99.90
15452;DHT22;7827;53.594;9.938;2022-09-09T09:44:27;18.90;99.90
15452;DHT22;7827;53.594;9.938;2022-09-09T09:47:08;18.90;99.90
15452;DHT22;7827;53.594;9.938;2022-09-09T09:49:51;19.00;99.90
15452;DHT22;7827;53.594;9.938;2022-09-09T09:52:22;18.90;99.90
15452;DHT22;7827;53.594;9.938;2022-09-09T09:54:53;19.00;99.90
15452;DHT22;7827;53.594;9.938;2022-09-09T09:57:26;19.10;99.90
15452;DHT22;7827;53.594;9.938;2022-09-09T10:00:11;19.20;99.90
15452;DHT22;7827;53.594;9.938;2022-09-09T10:02:45;19.40;99.90
15452;DHT22;7827;53.594;9.938;2022-09-09T10:05:21;19.50;99.90
15452;DHT22;7827;53.594;9.938;2022-09-09T10:08:03;19.60;99.90
15452;DHT22;7827;53.594;9.938;2022-09-09T10:10:40;19.70;99.90
15452;DHT22;7827;53.594;9.938;2022-09-09T10:13:19;19.80;99.90
15452;DHT22;7827;53.594;9.938;2022-09-09T10:16:06;19.70;99.90
15452;DHT22;7827;53.594;9.938;2022-09-09T10:18:52;19.70;99.90
15452;DHT22;7827;53.594;9.938;2022-09-09T10:21:53;19.70;99.90
15452;DHT22;7827;53.594;9.938;2022-09-09T10:24:54;19.80;99.90
15452;DHT22;7827;53.594;9.938;2022-09-09T10:27:40;19.80;99.90
15452;DHT22;7827;53.594;9.938;2022-09-09T10:30:17;20.00;99.90
15452;DHT22;7827;53.594;9.938;2022-09-09T10:32:51;20.10;99.90
15452;DHT22;7827;53.594;9.938;2022-09-09T10:35:30;20.30;99.90
15452;DHT22;7827;53.594;9.938;2022-09-09T10:38:13;20.30;99.90
15452;DHT22;7827;53.594;9.938;2022-09-09T10:41:09;20.40;99.90
15452;DHT22;7827;53.594;9.938;2022-09-09T10:44:06;20.40;99.90
15452;DHT22;7827;53.594;9.938;2022-09-09T10:47:07;20.50;99.90
15452;DHT22;7827;53.594;9.938;2022-09-09T10:50:01;20.60;99.90
15452;DHT22;7827;53.594;9.938;2022-09-09T10:52:44;20.60;99.90
15452;DHT22;7827;53.594;9.938;2022-09-09T10:55:27;20.70;99.90
15452;DHT22;7827;53.594;9.938;2022-09-09T10:58:00;20.90;99.90
15452;DHT22;7827;53.594;9.938;2022-09-09T11:00:38;20.90;99.90
15452;DHT22;7827;53.594;9.938;2022-09-09T11:03:15;20.80;99.90
15452;DHT22;7827;53.594;9.938;2022-09-09T11:05:53;20.70;99.90
15452;DHT22;7827;53.594;9.938;2022-09-09T11:08:25;20.70;99.90
15452;DHT22;7827;53.594;9.938;2022-09-09T11:11:00;20.80;99.90
15452;DHT22;7827;53.594;9.938;2022-09-09T11:13:35;20.80;99.90
15452;DHT22;7827;53.594;9.938;2022-09-09T11:16:19;20.70;99.90
15452;DHT22;7827;53.594;9.938;2022-09-09T11:18:58;20.70;99.90
15452;DHT22;7827;53.594;9.938;2022-09-09T11:21:36;20.60;99.90
15452;DHT22;7827;53.594;9.938;2022-09-09T11:24:13;20.60;99.90
15452;DHT22;7827;53.594;9.938;2022-09-09T11:26:52;20.50;99.90
15452;DHT22;7827;53.594;9.938;2022-09-09T11:29:50;20.50;99.90
15452;DHT22;7827;53.594;9.938;2022-09-09T11:32:42;20.50;99.90
15452;DHT22;7827;53.594;9.938;2022-09-09T11:35:39;20.60;99.90
15452;DHT22;7827;53.594;9.938;2022-09-09T11:38:24;20.80;99.90
15452;DHT22;7827;53.594;9.938;2022-09-09T11:40:56;21.10;99.90
15452;DHT22;7827;53.594;9.938;2022-09-09T11:43:30;21.10;99.90
15452;DHT22;7827;53.594;9.938;2022-09-09T11:46:02;21.20;99.90
15452;DHT22;7827;53.594;9.938;2022-09-09T11:48:33;21.30;99.90
15452;DHT22;7827;53.594;9.938;2022-09-09T11:51:05;21.30;99.90
15452;DHT22;7827;53.594;9.938;2022-09-09T11:53:51;21.40;99.90
15452;DHT22;7827;53.594;9.938;2022-09-09T11:56:29;21.70;99.90
15452;DHT22;7827;53.594;9.938;2022-09-09T11:59:00;21.80;99.90
15452;DHT22;7827;53.594;9.938;2022-09-09T12:01:35;21.50;99.90
15452;DHT22;7827;53.594;9.938;2022-09-09T12:04:29;21.50;99.90
15452;DHT22;7827;53.594;9.938;2022-09-09T12:07:27;21.40;99.90
15452;DHT22;7827;53.594;9.938;2022-09-09T12:10:05;21.20;99.90
15452;DHT22;7827;53.594;9.938;2022-09-09T12:12:47;21.10;99.90
15452;DHT22;7827;53.594;9.938;2022-09-09T12:15:26;21.00;99.90
15452;DHT22;7827;53.594;9.938;2022-09-09T12:17:57;21.00;99.90
15452;DHT22;7827;53.594;9.938;2022-09-09T12:20:34;20.90;99.90
15452;DHT22;7827;53.594;9.938;2022-09-09T12:23:19;20.90;99.90
15452;DHT22;7827;53.594;9.938;2022-09-09T12:26:20;20.90;99.90
15452;DHT22;7827;53.594;9.938;2022-09-09T12:29:01;20.70;99.90
15452;DHT22;7827;53.594;9.938;2022-09-09T12:31:41;20.70;99.90
15452;DHT22;7827;53.594;9.938;2022-09-09T12:34:16;20.70;99.90
15452;DHT22;7827;53.594;9.938;2022-09-09T12:36:52;20.50;99.90
15452;DHT22;7827;53.594;9.938;2022-09-09T12:39:29;20.50;99.90
15452;DHT22;7827;53.594;9.938;2022-09-09T12:42:02;20.50;99.90
15452;DHT22;7827;53.594;9.938;2022-09-09T12:44:31;20.40;99.90
15452;DHT22;7827;53.594;9.938;2022-09-09T12:47:01;20.30;99.90
15452;DHT22;7827;53.594;9.938;2022-09-09T12:49:34;20.30;99.90
15452;DHT22;7827;53.594;9.938;2022-09-09T12:52:08;20.30;99.90
15452;DHT22;7827;53.594;9.938;2022-09-09T12:54:45;20.30;99.90
15452;DHT22;7827;53.594;9.938;2022-09-09T12:57:16;20.30;99.90
15452;DHT22;7827;53.594;9.938;2022-09-09T12:59:44;20.20;99.90
15452;DHT22;7827;53.594;9.938;2022-09-09T13:02:22;20.20;99.90
15452;DHT22;7827;53.594;9.938;2022-09-09T13:04:53;20.10;99.90
15452;DHT22;7827;53.594;9.938;2022-09-09T13:07:22;20.00;99.90
15452;DHT22;7827;53.594;9.938;2022-09-09T13:09:52;19.90;99.90
15452;DHT22;7827;53.594;9.938;2022-09-09T13:12:22;19.90;99.90
15452;DHT22;7827;53.594;9.938;2022-09-09T13:14:54;19.80;99.90
15452;DHT22;7827;53.594;9.938;2022-09-09T13:17:25;19.80;99.90
15452;DHT22;7827;53.594;9.938;2022-09-09T13:19:56;19.70;99.90
15452;DHT22;7827;53.594;9.938;2022-09-09T13:22:30;19.60;99.90
15452;DHT22;7827;53.594;9.938;2022-09-09T13:25:02;19.50;99.90
15452;DHT22;7827;53.594;9.938;2022-09-09T13:27:35;19.30;99.90
15452;DHT22;7827;53.594;9.938;2022-09-09T13:30:21;19.20;99.90
15452;DHT22;7827;53.594;9.938;2022-09-09T13:33:02;19.20;99.90
15452;DHT22;7827;53.594;9.938;2022-09-09T13:35:34;18.90;99.90
15452;DHT22;7827;53.594;9.938;2022-09-09T13:38:09;18.60;99.90
15452;DHT22;7827;53.594;9.938;2022-09-09T13:40:37;18.20;99.90
15452;DHT22;7827;53.594;9.938;2022-09-09T13:43:14;18.00;99.90
15452;DHT22;7827;53.594;9.938;2022-09-09T13:45:53;17.70;99.90
15452;DHT22;7827;53.594;9.938;2022-09-09T13:48:23;17.50;99.90
15452;DHT22;7827;53.594;9.938;2022-09-09T13:50:58;17.40;99.90
15452;DHT22;7827;53.594;9.938;2022-09-09T13:53:28;17.30;99.90
15452;DHT22;7827;53.594;9.938;2022-09-09T13:55:57;17.40;99.90
15452;DHT22;7827;53.594;9.938;2022-09-09T13:58:27;17.40;99.90
15452;DHT22;7827;53.594;9.938;2022-09-09T14:00:55;17.40;99.90
15452;DHT22;7827;53.594;9.938;2022-09-09T14:03:24;17.40;99.90
15452;DHT22;7827;53.594;9.938;2022-09-09T14:05:53;17.30;99.90
15452;DHT22;7827;53.594;9.938;2022-09-09T14:08:24;17.40;99.90
15452;DHT22;7827;53.594;9.938;2022-09-09T14:10:54;17.40;99.90
15452;DHT22;7827;53.594;9.938;2022-09-09T14:13:26;17.40;99.90
15452;DHT22;7827;53.594;9.938;2022-09-09T14:15:54;17.50;99.90
15452;DHT22;7827;53.594;9.938;2022-09-09T14:18:23;17.50;99.90
15452;DHT22;7827;53.594;9.938;2022-09-09T14:20:52;17.50;99.90
15452;DHT22;7827;53.594;9.938;2022-09-09T14:23:20;17.60;99.90
15452;DHT22;7827;53.594;9.938;2022-09-09T14:25:49;17.60;99.90
15452;DHT22;7827;53.594;9.938;2022-09-09T14:28:18;17.60;99.90
15452;DHT22;7827;53.594;9.938;2022-09-09T14:31:08;17.60;99.90
15452;DHT22;7827;53.594;9.938;2022-09-09T14:33:37;17.70;99.90
15452;DHT22;7827;53.594;9.938;2022-09-09T14:36:06;17.70;99.90
15452;DHT22;7827;53.594;9.938;2022-09-09T14:38:36;17.60;99.90
15452;DHT22;7827;53.594;9.938;2022-09-09T14:41:06;17.60;99.90
15452;DHT22;7827;53.594;9.938;2022-09-09T14:43:35;17.60;99.90
15452;DHT22;7827;53.594;9.938;2022-09-09T14:46:05;17.50;99.90
15452;DHT22;7827;53.594;9.938;2022-09-09T14:48:35;17.50;99.90
15452;DHT22;7827;53.594;9.938;2022-09-09T14:51:07;17.50;99.90
15452;DHT22;7827;53.594;9.938;2022-09-09T14:53:37;17.60;99.90
15452;DHT22;7827;53.594;9.938;2022-09-09T14:56:07;17.50;99.90
15452;DHT22;7827;53.594;9.938;2022-09-09T14:58:37;17.50;99.90
15452;DHT22;7827;53.594;9.938;2022-09-09T15:01:07;17.50;99.90
15452;DHT22;7827;53.594;9.938;2022-09-09T15:03:40;17.50;99.90
15452;DHT22;7827;53.594;9.938;2022-09-09T15:06:10;17.50;99.90
15452;DHT22;7827;53.594;9.938;2022-09-09T15:08:42;17.60;99.90
15452;DHT22;7827;53.594;9.938;2022-09-09T15:11:14;17.60;99.90
15452;DHT22;7827;53.594;9.938;2022-09-09T15:13:43;17.50;99.90
15452;DHT22;7827;53.594;9.938;2022-09-09T15:16:13;17.50;99.90
15452;DHT22;7827;53.594;9.938;2022-09-09T15:18:44;17.40;99.90
15452;DHT22;7827;53.594;9.938;2022-09-09T15:21:15;17.40;99.90
15452;DHT22;7827;53.594;9.938;2022-09-09T15:23:46;17.40;99.90
15452;DHT22;7827;53.594;9.938;2022-09-09T15:26:15;17.40;99.90
15452;DHT22;7827;53.594;9.938;2022-09-09T15:28:44;17.30;99.90
15452;DHT22;7827;53.594;9.938;2022-09-09T15:31:15;17.30;99.90
15452;DHT22;7827;53.594;9.938;2022-09-09T15:33:49;17.30;99.90
15452;DHT22;7827;53.594;9.938;2022-09-09T15:36:19;17.30;99.90
15452;DHT22;7827;53.594;9.938;2022-09-09T15:38:49;17.30;99.90
15452;DHT22;7827;53.594;9.938;2022-09-09T15:41:19;17.30;99.90
15452;DHT22;7827;53.594;9.938;2022-09-09T15:43:50;17.30;99.90
15452;DHT22;7827;53.594;9.938;2022-09-09T15:46:24;17.40;99.90
15452;DHT22;7827;53.594;9.938;2022-09-09T15:49:02;17.40;99.90
15452;DHT22;7827;53.594;9.938;2022-09-09T15:51:32;17.50;99.90
15452;DHT22;7827;53.594;9.938;2022-09-09T15:54:10;17.40;99.90
15452;DHT22;7827;53.594;9.938;2022-09-09T15:56:40;17.50;99.90
15452;DHT22;7827;53.594;9.938;2022-09-09T15:59:09;17.60;99.90
15452;DHT22;7827;53.594;9.938;2022-09-09T16:01:38;17.60;99.90
15452;DHT22;7827;53.594;9.938;2022-09-09T16:04:10;17.70;99.90
15452;DHT22;7827;53.594;9.938;2022-09-09T16:06:39;17.80;99.90
15452;DHT22;7827;53.594;9.938;2022-09-09T16:09:07;17.90;99.90
15452;DHT22;7827;53.594;9.938;2022-09-09T16:11:37;18.00;99.90
15452;DHT22;7827;53.594;9.938;2022-09-09T16:14:06;18.10;99.90
15452;DHT22;7827;53.594;9.938;2022-09-09T16:16:35;18.10;99.90
15452;DHT22;7827;53.594;9.938;2022-09-09T16:19:05;18.30;99.90
15452;DHT22;7827;53.594;9.938;2022-09-09T16:21:38;18.40;99.90
15452;DHT22;7827;53.594;9.938;2022-09-09T16:24:10;18.40;99.90
15452;DHT22;7827;53.594;9.938;2022-09-09T16:26:41;18.50;99.90
15452;DHT22;7827;53.594;9.938;2022-09-09T16:29:12;18.50;99.90
15452;DHT22;7827;53.594;9.938;2022-09-09T16:31:41;18.60;99.90